createdAt,value
2018-02-18T00:01:29.289Z,76.50
2018-02-18T00:03:58.262Z,75.40
2018-02-18T00:06:27.076Z,74.70
2018-02-18T00:08:56.074Z,73.90
2018-02-18T00:11:24.853Z,73.00
2018-02-18T00:13:53.728Z,72.90
2018-02-18T00:16:23.704Z,73.50
2018-02-18T00:18:52.578Z,73.40
2018-02-18T00:21:21.456Z,75.70
2018-02-18T00:23:50.289Z,75.40
2018-02-18T00:26:20.289Z,76.30
2018-02-18T00:28:49.169Z,76.30
2018-02-18T00:31:18.689Z,76.40
2018-02-18T00:33:47.787Z,76.30
2018-02-18T00:36:17.417Z,76.50
2018-02-18T00:38:46.174Z,76.50
2018-02-18T00:41:15.888Z,76.50
2018-02-18T00:43:44.836Z,76.40
2018-02-18T00:46:13.677Z,76.40
2018-02-18T00:48:42.622Z,74.00
2018-02-18T00:51:11.641Z,75.10
2018-02-18T00:53:41.375Z,74.90
2018-02-18T00:56:10.976Z,74.00
2018-02-18T00:58:40.761Z,73.50
2018-02-18T01:01:09.627Z,73.50
2018-02-18T01:03:38.377Z,74.50
2018-02-18T01:06:07.233Z,74.30
2018-02-18T01:08:36.000Z,74.60
2018-02-18T01:11:05.098Z,75.60
2018-02-18T01:13:33.876Z,75.90
2018-02-18T01:16:02.874Z,75.70
2018-02-18T01:18:31.677Z,75.40
2018-02-18T01:21:00.650Z,75.80
2018-02-18T01:23:29.643Z,76.20
2018-02-18T01:25:58.448Z,76.10
2018-02-18T01:28:27.568Z,76.50
2018-02-18T01:30:56.274Z,75.80
2018-02-18T01:33:25.074Z,76.60
2018-02-18T01:35:53.861Z,76.80
2018-02-18T01:38:22.951Z,76.90
2018-02-18T01:40:52.508Z,77.10
2018-02-18T01:43:22.309Z,77.00
2018-02-18T01:45:51.171Z,76.30
2018-02-18T01:48:20.089Z,76.60
2018-02-18T01:50:48.751Z,76.60
2018-02-18T01:53:18.309Z,77.00
2018-02-18T01:55:47.133Z,77.00
2018-02-18T01:58:16.697Z,77.80
2018-02-18T02:00:46.221Z,77.50
2018-02-18T02:03:15.157Z,77.50
2018-02-18T02:05:43.906Z,78.10
2018-02-18T02:08:12.880Z,78.50
2018-02-18T02:10:42.585Z,78.10
2018-02-18T02:13:11.943Z,78.10
2018-02-18T02:15:41.003Z,77.80
2018-02-18T02:18:09.770Z,77.40
2018-02-18T02:20:38.751Z,77.60
2018-02-18T02:23:07.499Z,77.40
2018-02-18T02:25:36.269Z,76.40
2018-02-18T02:28:05.925Z,77.10
2018-02-18T02:30:34.709Z,77.00
2018-02-18T02:33:03.509Z,77.10
2018-02-18T02:35:32.326Z,77.20
2018-02-18T02:38:02.139Z,78.20
2018-02-18T02:40:31.061Z,78.20
2018-02-18T02:42:59.910Z,78.90
2018-02-18T02:45:29.177Z,80.00
2018-02-18T02:47:58.098Z,79.60
2018-02-18T02:50:26.930Z,79.60
2018-02-18T02:52:55.630Z,80.60
2018-02-18T02:55:24.458Z,80.90
2018-02-18T02:57:53.126Z,81.30
2018-02-18T03:00:21.865Z,80.50
2018-02-18T03:02:50.807Z,80.30
2018-02-18T03:05:20.451Z,80.30
2018-02-18T03:07:50.010Z,80.60
2018-02-18T03:10:18.893Z,80.50
2018-02-18T03:12:47.665Z,81.20
2018-02-18T03:15:16.422Z,81.90
2018-02-18T03:17:46.171Z,81.50
2018-02-18T03:20:16.094Z,80.70
2018-02-18T03:22:44.986Z,80.60
2018-02-18T03:25:13.714Z,80.90
2018-02-18T03:27:42.749Z,82.00
2018-02-18T03:30:11.460Z,81.10
2018-02-18T03:32:40.400Z,81.20
2018-02-18T03:35:09.169Z,80.70
2018-02-18T03:37:37.931Z,80.80
2018-02-18T03:40:07.130Z,81.80
2018-02-18T03:42:36.080Z,81.80
2018-02-18T03:45:05.941Z,82.30
2018-02-18T03:47:35.526Z,81.90
2018-02-18T03:50:04.321Z,81.90
2018-02-18T03:52:33.106Z,82.80
2018-02-18T03:55:02.107Z,82.50
2018-02-18T03:57:30.829Z,82.40
2018-02-18T03:59:59.621Z,82.30
2018-02-18T04:02:28.559Z,82.50
2018-02-18T04:04:57.690Z,82.00
2018-02-18T04:07:26.386Z,81.80
2018-02-18T04:09:55.461Z,82.40
2018-02-18T04:12:24.339Z,82.80
2018-02-18T04:14:53.102Z,82.80
2018-02-18T04:17:21.950Z,82.80
2018-02-18T04:19:50.639Z,81.80
2018-02-18T04:22:19.524Z,81.90
2018-02-18T04:24:49.133Z,82.10
2018-02-18T04:27:18.098Z,82.00
2018-02-18T04:29:46.809Z,82.30
2018-02-18T04:32:16.592Z,83.10
2018-02-18T04:34:45.353Z,83.80
2018-02-18T04:37:14.237Z,82.10
2018-02-18T04:39:42.955Z,81.80
2018-02-18T04:42:12.060Z,81.40
2018-02-18T04:44:41.148Z,82.20
2018-02-18T04:47:10.890Z,82.50
2018-02-18T04:49:40.562Z,83.20
2018-02-18T04:52:09.389Z,83.10
2018-02-18T04:54:38.145Z,83.10
2018-02-18T04:57:06.919Z,83.90
2018-02-18T04:59:36.230Z,83.30
2018-02-18T05:02:05.036Z,83.60
2018-02-18T05:04:33.821Z,83.90
2018-02-18T05:07:02.893Z,83.10
2018-02-18T05:09:32.233Z,83.70
2018-02-18T05:12:01.373Z,82.80
2018-02-18T05:14:30.438Z,82.80
2018-02-18T05:16:59.554Z,82.20
2018-02-18T05:19:28.318Z,82.40
2018-02-18T05:21:56.995Z,82.60
2018-02-18T05:24:26.587Z,82.80
2018-02-18T05:26:55.435Z,82.80
2018-02-18T05:29:25.371Z,83.00
2018-02-18T05:31:54.179Z,82.90
2018-02-18T05:34:23.226Z,83.20
2018-02-18T05:36:52.814Z,82.50
2018-02-18T05:39:21.616Z,82.50
2018-02-18T05:41:51.218Z,81.00
2018-02-18T09:37:23.789Z,37.60
2018-02-18T09:39:52.983Z,37.60
2018-02-18T09:42:22.329Z,39.70
2018-02-18T09:44:52.511Z,39.60
2018-02-18T09:47:22.488Z,37.20
2018-02-18T09:49:52.299Z,37.80
2018-02-18T09:52:21.416Z,37.70
2018-02-18T09:54:50.768Z,36.90
2018-02-18T09:57:20.082Z,38.20
2018-02-18T09:59:50.099Z,35.40
2018-02-18T10:02:19.931Z,36.10
2018-02-18T10:04:49.875Z,37.10
2018-02-18T10:07:19.196Z,37.10
2018-02-18T10:09:48.886Z,35.60
2018-02-18T10:12:18.183Z,35.60
2018-02-18T10:14:48.088Z,34.60
2018-02-18T10:17:17.924Z,36.60
2018-02-18T10:19:47.039Z,36.60
2018-02-18T10:22:16.221Z,34.60
2018-02-18T10:24:45.113Z,35.90
2018-02-18T10:27:14.070Z,37.20
2018-02-18T10:29:43.014Z,35.50
2018-02-18T10:32:12.761Z,35.90
2018-02-18T10:34:42.500Z,36.90
2018-02-18T10:37:11.720Z,36.80
2018-02-18T10:39:40.830Z,36.60
2018-02-18T10:42:10.003Z,37.30
2018-02-18T10:44:39.060Z,36.10
2018-02-18T10:47:08.046Z,35.30
2018-02-18T10:49:37.780Z,36.10
2018-02-18T10:52:06.758Z,36.00
2018-02-18T10:54:36.599Z,33.60
2018-02-18T10:57:05.500Z,33.60
2018-02-18T10:59:34.445Z,35.00
2018-02-18T11:02:03.414Z,35.30
2018-02-18T11:04:33.149Z,34.60
2018-02-18T11:07:02.110Z,34.60
2018-02-18T11:09:31.092Z,35.30
2018-02-18T11:12:00.221Z,35.10
2018-02-18T11:14:31.371Z,34.80
2018-02-18T11:17:01.145Z,35.60
2018-02-18T11:19:30.897Z,36.00
2018-02-18T11:22:00.627Z,35.90
2018-02-18T11:24:29.547Z,35.90
2018-02-18T11:26:58.472Z,35.40
2018-02-18T11:29:28.330Z,35.40
2018-02-18T11:31:57.364Z,35.40
2018-02-18T11:34:26.236Z,33.90
2018-02-18T11:36:55.198Z,34.50
2018-02-18T11:39:24.104Z,36.00
2018-02-18T11:41:53.920Z,35.50
2018-02-18T11:44:22.898Z,35.50
2018-02-18T11:46:51.864Z,35.60
2018-02-18T11:49:20.981Z,35.80
2018-02-18T11:51:49.872Z,36.60
2018-02-18T11:54:18.853Z,36.70
2018-02-18T11:56:47.834Z,38.50
2018-02-18T11:59:17.556Z,42.20
2018-02-18T12:01:47.251Z,39.10
2018-02-18T12:04:17.010Z,41.20
2018-02-18T12:06:45.955Z,41.10
2018-02-18T12:09:15.832Z,41.50
2018-02-18T12:11:44.810Z,42.20
2018-02-18T12:14:13.768Z,40.70
2018-02-18T12:16:43.522Z,39.80
2018-02-18T12:19:12.464Z,39.80
2018-02-18T12:21:41.391Z,41.00
2018-02-18T12:24:10.347Z,40.10
2018-02-18T12:26:40.183Z,39.70
2018-02-18T12:29:09.214Z,39.60
2018-02-18T12:31:38.179Z,41.20
2018-02-18T12:34:07.930Z,39.50
2018-02-18T12:36:36.903Z,39.40
2018-02-18T12:39:05.893Z,42.00
2018-02-18T12:41:34.800Z,41.10
2018-02-18T12:44:04.518Z,42.00
2018-02-18T12:46:34.302Z,41.70
2018-02-18T12:49:03.268Z,41.60
2018-02-18T12:51:32.220Z,41.30
2018-02-18T12:54:01.238Z,41.70
2018-02-18T12:56:30.114Z,42.00
2018-02-18T12:58:59.181Z,42.40
2018-02-18T13:01:28.216Z,42.30
2018-02-18T13:03:58.089Z,41.40
2018-02-18T13:06:27.044Z,41.40
2018-02-18T13:08:56.035Z,43.10
2018-02-18T13:11:24.946Z,43.90
2018-02-18T13:13:53.910Z,42.90
2018-02-18T13:16:23.624Z,43.60
2018-02-18T13:18:52.554Z,43.60
2018-02-18T13:21:21.527Z,43.60
2018-02-18T13:23:50.497Z,43.90
2018-02-18T13:26:19.489Z,44.40
2018-02-18T13:28:48.447Z,43.60
2018-02-18T13:31:18.259Z,44.20
2018-02-18T13:33:47.267Z,44.20
2018-02-18T13:36:16.952Z,44.00
2018-02-18T13:38:46.669Z,44.30
2018-02-18T13:41:16.580Z,44.30
2018-02-18T13:43:46.528Z,45.50
2018-02-18T13:46:15.493Z,45.50
2018-02-18T13:48:45.219Z,46.90
2018-02-18T13:51:15.033Z,46.10
2018-02-18T13:53:44.758Z,46.50
2018-02-18T13:56:13.735Z,46.40
2018-02-18T13:58:43.416Z,46.70
2018-02-18T14:01:12.382Z,46.70
2018-02-18T14:03:41.305Z,46.00
2018-02-18T14:06:11.042Z,46.60
2018-02-18T14:08:40.735Z,47.20
2018-02-18T14:11:10.454Z,46.90
2018-02-18T14:13:39.356Z,46.90
2018-02-18T14:16:09.207Z,46.90
2018-02-18T14:18:38.190Z,46.90
2018-02-18T14:21:07.154Z,47.40
2018-02-18T14:23:36.142Z,46.60
2018-02-18T14:26:05.157Z,47.00
2018-02-18T14:28:34.099Z,47.00
2018-02-18T14:31:03.830Z,47.00
2018-02-18T14:33:32.796Z,47.60
2018-02-18T14:36:01.984Z,47.10
2018-02-18T14:38:30.923Z,47.90
2018-02-18T14:41:00.571Z,48.30
2018-02-18T14:43:41.371Z,48.30
2018-02-18T14:46:22.131Z,48.90
2018-02-18T14:49:02.999Z,49.00
2018-02-18T14:51:43.512Z,49.40
2018-02-18T14:54:24.244Z,49.20
2018-02-18T14:57:05.073Z,50.50
2018-02-18T14:59:34.140Z,51.60
2018-02-18T15:02:03.851Z,51.80
2018-02-18T15:04:32.736Z,51.70
2018-02-18T15:07:02.420Z,54.10
2018-02-18T15:09:31.483Z,54.10
2018-02-18T15:12:00.447Z,55.20
2018-02-18T15:14:29.388Z,55.40
2018-02-18T15:16:58.328Z,56.00
2018-02-18T15:19:27.323Z,56.50
2018-02-18T15:21:56.217Z,56.80
2018-02-18T15:24:25.234Z,57.90
2018-02-18T15:26:54.187Z,58.50
2018-02-18T15:29:24.062Z,58.30
2018-02-18T15:31:53.008Z,58.30
2018-02-18T15:34:21.888Z,59.00
2018-02-18T15:36:50.830Z,58.60
2018-02-18T15:39:20.552Z,59.40
2018-02-18T15:41:49.600Z,59.30
2018-02-18T15:44:18.508Z,59.50
2018-02-18T15:46:47.556Z,59.60
2018-02-18T15:49:17.285Z,61.00
2018-02-18T15:51:46.220Z,61.00
2018-02-18T15:54:15.152Z,61.00
2018-02-18T15:56:44.109Z,60.80
2018-02-18T15:59:13.070Z,60.70
2018-02-18T16:01:42.054Z,60.50
2018-02-18T16:04:11.103Z,60.50
2018-02-18T16:06:40.890Z,61.50
2018-02-18T16:09:10.576Z,62.10
2018-02-18T16:11:39.512Z,62.00
2018-02-18T16:14:08.452Z,62.00
2018-02-18T16:16:37.412Z,62.20
2018-02-18T16:19:06.478Z,63.00
2018-02-18T16:21:36.233Z,62.90
2018-02-18T16:24:05.360Z,62.90
2018-02-18T16:26:34.360Z,63.50
2018-02-18T16:29:03.410Z,63.40
2018-02-18T16:31:33.104Z,63.50
2018-02-18T16:34:02.139Z,63.40
2018-02-18T16:36:31.125Z,63.60
2018-02-18T16:39:00.269Z,63.80
2018-02-18T16:41:29.279Z,64.00
2018-02-18T16:43:58.260Z,63.60
2018-02-18T16:46:27.380Z,63.80
2018-02-18T16:48:56.527Z,64.30
2018-02-18T16:51:25.494Z,64.60
2018-02-18T16:53:54.476Z,65.00
2018-02-18T16:56:24.387Z,65.60
2018-02-18T16:58:54.064Z,65.60
2018-02-18T17:01:23.756Z,65.80
2018-02-18T17:03:52.793Z,65.80
2018-02-18T17:06:21.776Z,66.00
2018-02-18T17:08:51.433Z,66.70
2018-02-18T17:11:20.415Z,66.70
2018-02-18T17:13:49.380Z,67.60
2018-02-18T17:16:20.016Z,67.90
2018-02-18T17:18:49.956Z,68.00
2018-02-18T17:21:19.060Z,67.80
2018-02-18T17:23:48.860Z,69.10
2018-02-18T17:26:17.800Z,69.00
2018-02-18T17:28:46.827Z,68.50
2018-02-18T17:31:16.548Z,69.80
2018-02-18T17:33:45.547Z,69.80
2018-02-18T17:36:14.408Z,69.90
2018-02-18T17:38:44.099Z,72.60
2018-02-18T17:41:13.068Z,72.60
2018-02-18T17:43:42.044Z,73.60
2018-02-18T17:46:11.202Z,73.50
2018-02-18T17:48:40.926Z,74.30
2018-02-18T17:51:09.869Z,73.50
2018-02-18T17:53:38.939Z,74.50
2018-02-18T17:56:07.980Z,73.90
2018-02-18T17:58:37.142Z,73.70
2018-02-18T18:01:06.214Z,73.20
2018-02-18T18:03:35.161Z,73.50
2018-02-18T18:06:04.054Z,73.20
2018-02-18T18:08:33.051Z,73.60
2018-02-18T18:11:01.991Z,73.70
2018-02-18T18:13:30.984Z,74.00
2018-02-18T18:16:00.028Z,74.10
2018-02-18T18:18:29.776Z,74.40
2018-02-18T18:20:58.681Z,74.40
2018-02-18T18:23:27.645Z,74.00
2018-02-18T18:25:56.605Z,73.80
2018-02-18T18:28:25.702Z,74.90
2018-02-18T18:30:54.661Z,74.10
2018-02-18T18:33:23.725Z,75.00
2018-02-18T18:35:52.701Z,76.10
2018-02-18T18:38:22.440Z,76.60
2018-02-18T18:40:51.478Z,76.50
2018-02-18T18:43:21.330Z,77.90
2018-02-18T18:45:50.453Z,77.80
2018-02-18T18:48:19.615Z,76.70
2018-02-18T18:50:48.871Z,77.70
2018-02-18T18:53:18.129Z,78.60
2018-02-18T18:55:47.314Z,78.40
2018-02-18T18:58:16.443Z,78.50
2018-02-18T19:00:46.251Z,77.00
2018-02-18T19:03:15.460Z,76.90
2018-02-18T19:05:44.793Z,78.30
2018-02-18T19:08:14.127Z,79.70
2018-02-18T19:10:44.343Z,78.70
2018-02-18T19:13:14.397Z,79.70
2018-02-18T19:15:44.536Z,79.80
2018-02-18T19:18:14.598Z,80.30
2018-02-18T19:20:43.720Z,80.30
2018-02-18T19:23:12.827Z,79.10
2018-02-18T19:25:41.934Z,79.70
2018-02-18T19:28:11.123Z,80.50
2018-02-18T19:30:41.203Z,79.40
2018-02-18T19:33:10.422Z,79.40
2018-02-18T19:35:39.903Z,79.50
2018-02-18T19:38:09.229Z,80.80
2018-02-18T19:40:38.462Z,80.60
2018-02-18T19:43:07.787Z,79.80
2018-02-18T19:45:37.806Z,81.80
2018-02-18T19:48:07.034Z,81.80
2018-02-18T19:50:36.409Z,80.30
2018-02-18T19:53:05.698Z,79.40
2018-02-18T19:55:35.047Z,79.60
2018-02-18T19:58:04.368Z,79.80
2018-02-18T20:00:34.624Z,79.10
2018-02-18T20:03:04.591Z,79.20
2018-02-18T20:05:33.893Z,79.20
2018-02-18T20:08:03.202Z,79.30
2018-02-18T20:10:32.580Z,79.50
2018-02-18T20:13:01.955Z,80.40
2018-02-18T20:15:31.232Z,79.50
2018-02-18T20:18:00.492Z,79.50
2018-02-18T20:20:30.612Z,80.00
2018-02-18T20:22:59.845Z,79.80
2018-02-18T20:25:29.696Z,80.50
2018-02-18T20:27:59.472Z,81.80
2018-02-18T20:30:28.611Z,81.70
2018-02-18T20:32:57.639Z,81.70
2018-02-18T20:35:27.084Z,81.80
2018-02-18T20:37:56.298Z,81.90
2018-02-18T20:40:25.343Z,81.00
2018-02-18T20:42:54.342Z,81.90
2018-02-18T20:45:25.001Z,82.10
2018-02-18T20:47:55.967Z,80.90
2018-02-18T20:50:24.929Z,80.70
2018-02-18T20:52:53.958Z,80.10
2018-02-18T20:55:22.929Z,81.20
2018-02-18T20:57:52.104Z,81.10
2018-02-18T21:00:21.902Z,81.50
2018-02-18T21:02:51.678Z,81.30
2018-02-18T21:05:20.696Z,81.30
2018-02-18T21:07:49.748Z,84.00
2018-02-18T21:10:18.728Z,82.30
2018-02-18T21:12:48.459Z,83.00
2018-02-18T21:15:17.730Z,83.10
2018-02-18T21:17:46.880Z,82.50
2018-02-18T21:20:16.086Z,82.90
2018-02-18T21:22:45.043Z,82.50
2018-02-18T21:25:14.694Z,83.00
2018-02-18T21:27:43.697Z,83.00
2018-02-18T21:30:12.888Z,83.80
2018-02-18T21:32:41.837Z,83.40
2018-02-18T21:35:10.950Z,82.70
2018-02-18T21:37:39.819Z,83.70
2018-02-18T21:40:09.577Z,83.40
2018-02-18T21:42:38.898Z,83.40
2018-02-18T21:45:08.693Z,83.90
2018-02-18T21:47:38.508Z,83.40
2018-02-18T21:50:07.423Z,83.20
2018-02-18T21:52:37.324Z,83.20
2018-02-18T21:55:07.190Z,83.40
2018-02-18T21:57:36.116Z,83.30
2018-02-18T22:00:05.109Z,84.30
2018-02-18T22:02:34.492Z,85.70
2018-02-18T22:05:03.428Z,85.70
2018-02-18T22:07:32.475Z,85.50
2018-02-18T22:10:01.506Z,85.60
2018-02-18T22:12:30.627Z,85.20
2018-02-18T22:15:00.477Z,82.30
2018-02-18T22:17:30.372Z,81.50
2018-02-18T22:19:59.499Z,81.40
2018-02-18T22:22:28.609Z,81.50
2018-02-18T22:24:57.821Z,81.40
2018-02-18T22:27:27.511Z,82.10
2018-02-18T22:29:57.390Z,82.40
2018-02-18T22:32:27.236Z,83.00
2018-02-18T22:34:56.182Z,83.00
2018-02-18T22:37:25.883Z,84.50
2018-02-18T22:39:55.593Z,82.80
2018-02-18T22:42:24.549Z,82.80
2018-02-18T22:44:53.727Z,83.70
2018-02-18T22:47:23.229Z,84.70
2018-02-18T22:49:52.397Z,84.60
2018-02-18T22:52:22.101Z,84.30
2018-02-18T22:54:52.056Z,83.50
2018-02-18T22:57:21.061Z,83.50
2018-02-18T22:59:50.046Z,83.40
2018-02-18T23:02:19.820Z,82.10
2018-02-18T23:04:48.864Z,82.00
2018-02-18T23:07:18.034Z,81.60
2018-02-18T23:09:47.034Z,81.90
2018-02-18T23:12:16.324Z,82.30
2018-02-18T23:14:45.354Z,82.50
2018-02-18T23:17:14.181Z,82.80
2018-02-18T23:19:44.020Z,82.90
2018-02-18T23:22:12.888Z,82.90
2018-02-18T23:24:42.722Z,83.30
2018-02-18T23:27:11.792Z,83.20
2018-02-18T23:29:40.809Z,83.30
2018-02-18T23:32:09.885Z,83.10
2018-02-18T23:34:38.800Z,82.80
2018-02-18T23:37:07.701Z,83.00
2018-02-18T23:39:36.782Z,82.50
2018-02-18T23:42:05.764Z,82.60
2018-02-18T23:44:34.774Z,83.10
2018-02-18T23:47:03.862Z,82.80
2018-02-18T23:49:32.964Z,82.90
2018-02-18T23:52:01.924Z,82.60
2018-02-18T23:54:31.642Z,83.00
2018-02-18T23:57:00.795Z,82.90
2018-02-18T23:59:29.908Z,83.40
